Time;durP1;ratioP1;P1;durP2;ratioP2;P2;SDS_P1;SDS_P2;PMS_P1;PMS_P2;Temp;Humidity;BMP_temperature;BMP_pressure;BME280_temperature;BME280_humidity;BME280_pressure;Samples;Min_cycle;Max_cycle;Signal;HPM_P1;HPM_P2
2022/05/19 00:01:31;;;;;;;4.40;1.58;;;12.80;98.50;;;;;;5049700;28;19911;-58
2022/05/19 00:03:56;;;;;;;2.63;1.30;;;12.80;98.10;;;;;;5020656;28;20037;-55
2022/05/19 00:06:22;;;;;;;3.55;1.30;;;12.70;98.00;;;;;;5051647;28;20047;-55
2022/05/19 00:08:48;;;;;;;2.33;1.42;;;12.70;98.10;;;;;;5055689;28;20037;-53
2022/05/19 00:11:16;;;;;;;5.93;1.70;;;12.70;98.10;;;;;;5053491;28;20112;-53
2022/05/19 00:13:42;;;;;;;6.35;1.27;;;12.70;97.90;;;;;;5053812;28;20032;-55
2022/05/19 00:16:09;;;;;;;4.13;1.50;;;12.70;98.00;;;;;;5047063;28;20041;-55
2022/05/19 00:18:36;;;;;;;2.75;1.40;;;12.70;98.10;;;;;;5033751;28;20031;-53
2022/05/19 00:21:03;;;;;;;4.28;1.30;;;12.70;98.10;;;;;;5037846;28;20029;-54
2022/05/19 00:23:29;;;;;;;3.53;1.50;;;12.70;98.00;;;;;;5035832;28;20132;-54
2022/05/19 00:25:55;;;;;;;2.60;1.50;;;12.70;97.80;;;;;;5030935;28;20125;-52
2022/05/19 00:28:21;;;;;;;4.38;2.47;;;12.70;98.00;;;;;;5035435;28;20040;-54
2022/05/19 00:30:46;;;;;;;4.10;1.38;;;12.50;98.20;;;;;;5037250;28;20033;-52
2022/05/19 00:33:13;;;;;;;4.95;1.60;;;12.50;98.00;;;;;;5035661;28;20370;-51
2022/05/19 00:35:40;;;;;;;4.22;1.58;;;12.60;98.10;;;;;;5034794;28;20038;-56
2022/05/19 00:38:07;;;;;;;4.43;1.45;;;12.60;98.10;;;;;;5035977;28;20025;-55
2022/05/19 00:40:33;;;;;;;1.73;1.13;;;12.60;98.00;;;;;;5032669;28;20052;-55
2022/05/19 00:42:59;;;;;;;4.40;1.50;;;12.70;97.90;;;;;;5035692;28;20076;-55
2022/05/19 00:45:27;;;;;;;3.58;1.30;;;12.70;97.90;;;;;;5052729;28;20033;-52
2022/05/19 00:48:24;;;;;;;3.00;1.02;;;12.80;97.90;;;;;;5041444;28;20026;-55
2022/05/19 00:50:58;;;;;;;2.00;1.40;;;12.80;98.00;;;;;;5010151;28;20042;-52
2022/05/19 00:53:47;;;;;;;7.90;1.95;;;12.40;99.10;;;;;;5010448;28;20080;-55
2022/05/19 00:56:18;;;;;;;6.07;1.77;;;11.60;99.90;;;;;;4976387;28;20518;-53
2022/05/19 00:59:06;;;;;;;5.10;1.80;;;11.40;99.90;;;;;;4978076;28;20096;-52
2022/05/19 01:01:38;;;;;;;6.03;1.80;;;11.40;99.90;;;;;;5010276;28;20429;-56
2022/05/19 01:04:09;;;;;;;3.85;2.15;;;11.20;99.90;;;;;;5010286;28;20030;-57
2022/05/19 01:06:36;;;;;;;5.40;1.83;;;11.00;99.90;;;;;;4977102;28;20042;-50
2022/05/19 01:09:06;;;;;;;4.65;1.75;;;10.50;99.90;;;;;;5009819;28;20038;-55
2022/05/19 01:11:32;;;;;;;3.15;1.92;;;10.20;99.90;;;;;;5010344;28;20021;-56
2022/05/19 01:13:58;;;;;;;2.95;1.65;;;9.90;99.90;;;;;;5009550;28;20042;-54
2022/05/19 01:16:25;;;;;;;3.38;1.50;;;10.20;99.90;;;;;;5009426;28;20512;-54
2022/05/19 01:18:51;;;;;;;6.20;2.38;;;10.60;99.90;;;;;;5010017;28;20026;-53
2022/05/19 01:21:19;;;;;;;3.20;2.28;;;10.90;99.90;;;;;;5009552;28;20108;-53
2022/05/19 01:24:22;;;;;;;4.10;1.77;;;11.20;99.90;;;;;;5009589;28;20092;-49
2022/05/19 01:26:53;;;;;;;4.30;2.20;;;11.40;99.90;;;;;;5012891;28;20049;-51
2022/05/19 01:29:23;;;;;;;3.67;2.22;;;11.50;99.90;;;;;;5035930;28;20040;-52
2022/05/19 01:31:53;;;;;;;4.55;1.60;;;11.70;99.90;;;;;;5040249;28;20435;-52
2022/05/19 01:34:22;;;;;;;5.57;1.90;;;11.70;99.90;;;;;;5039037;28;20481;-56
2022/05/19 01:36:48;;;;;;;3.35;1.90;;;11.70;99.90;;;;;;5038334;28;20487;-53
2022/05/19 01:39:21;;;;;;;3.28;1.73;;;11.70;99.90;;;;;;5050698;28;20095;-54
2022/05/19 01:42:09;;;;;;;4.53;1.90;;;11.60;99.90;;;;;;5040744;28;20087;-50
2022/05/19 01:44:58;;;;;;;4.82;1.80;;;11.50;99.90;;;;;;5034399;28;20037;-55
2022/05/19 01:47:27;;;;;;;3.05;1.60;;;11.50;99.90;;;;;;5035822;28;20034;-52
2022/05/19 01:50:19;;;;;;;2.50;1.45;;;11.40;99.90;;;;;;5035288;28;20025;-55
2022/05/19 01:53:01;;;;;;;5.70;1.90;;;11.50;99.90;;;;;;5036957;28;20033;-52
2022/05/19 01:55:35;;;;;;;3.28;2.00;;;11.60;99.90;;;;;;5040601;28;20038;-53
2022/05/19 01:58:22;;;;;;;3.38;1.67;;;11.60;99.90;;;;;;5031851;28;20083;-52
2022/05/19 02:00:54;;;;;;;4.32;2.17;;;11.60;99.90;;;;;;5041668;28;20100;-57
2022/05/19 02:03:37;;;;;;;6.15;1.95;;;11.50;99.90;;;;;;5037678;28;20022;-58
2022/05/19 02:06:16;;;;;;;10.90;2.70;;;11.50;99.90;;;;;;5038239;28;20036;-60
2022/05/19 02:08:57;;;;;;;5.00;1.77;;;11.50;99.90;;;;;;5037620;28;20128;-52
2022/05/19 02:11:31;;;;;;;3.75;1.65;;;11.50;99.90;;;;;;5032085;28;20032;-50
2022/05/19 02:14:01;;;;;;;1.98;1.42;;;11.40;99.90;;;;;;5040759;28;20485;-53
2022/05/19 02:16:30;;;;;;;4.38;1.60;;;11.20;99.90;;;;;;5038781;28;20095;-57
2022/05/19 02:18:56;;;;;;;3.47;1.58;;;11.10;99.90;;;;;;5034352;28;20041;-58
2022/05/19 02:21:22;;;;;;;3.95;2.03;;;11.00;99.90;;;;;;5035483;28;20456;-54
2022/05/19 02:23:52;;;;;;;4.18;1.80;;;11.00;99.90;;;;;;5036832;28;20107;-58
2022/05/19 02:26:18;;;;;;;5.93;2.17;;;11.00;99.90;;;;;;5037469;28;20103;-54
2022/05/19 02:28:55;;;;;;;3.08;1.83;;;11.00;99.90;;;;;;5034274;28;20133;-56
2022/05/19 02:31:22;;;;;;;4.40;2.28;;;11.00;99.90;;;;;;5031781;28;20138;-55
2022/05/19 02:33:47;;;;;;;5.20;2.03;;;10.90;99.90;;;;;;5037427;28;20036;-56
2022/05/19 02:36:13;;;;;;;4.90;2.83;;;10.90;99.90;;;;;;5047962;28;20033;-55
2022/05/19 02:38:39;;;;;;;4.15;1.88;;;10.90;99.90;;;;;;5037006;28;20612;-57
2022/05/19 02:41:05;;;;;;;6.72;2.40;;;10.90;99.90;;;;;;5041149;28;20507;-60
2022/05/19 02:43:31;;;;;;;7.22;3.00;;;11.00;99.90;;;;;;5036902;28;20029;-55
2022/05/19 02:45:57;;;;;;;6.05;2.42;;;11.00;99.90;;;;;;5036255;28;20028;-56
2022/05/19 02:48:23;;;;;;;6.82;2.10;;;11.00;99.90;;;;;;5038806;28;20064;-54
2022/05/19 02:50:50;;;;;;;3.60;2.10;;;11.00;99.90;;;;;;5036788;28;20064;-55
2022/05/19 02:53:18;;;;;;;4.55;2.05;;;11.00;99.90;;;;;;5037970;28;20499;-50
2022/05/19 02:55:44;;;;;;;2.58;1.63;;;11.00;99.90;;;;;;5037280;28;20128;-57
2022/05/19 02:58:12;;;;;;;3.97;2.40;;;11.00;99.90;;;;;;5035616;28;20064;-54
2022/05/19 03:00:40;;;;;;;8.40;2.05;;;11.10;99.90;;;;;;5043257;28;20497;-52
2022/05/19 03:03:06;;;;;;;6.38;2.33;;;11.10;99.90;;;;;;5036433;28;20048;-51
2022/05/19 03:05:33;;;;;;;3.10;2.00;;;11.10;99.90;;;;;;5036766;28;20025;-54
2022/05/19 03:07:59;;;;;;;5.45;2.25;;;11.10;99.90;;;;;;5042183;28;20453;-54
2022/05/19 03:10:26;;;;;;;8.48;2.70;;;11.10;99.90;;;;;;5034045;28;20025;-58
2022/05/19 03:12:55;;;;;;;3.40;2.00;;;11.10;99.90;;;;;;5042778;28;20035;-58
2022/05/19 03:15:20;;;;;;;6.00;2.22;;;11.10;99.90;;;;;;5039366;28;20112;-55
2022/05/19 03:17:46;;;;;;;4.80;2.13;;;11.10;99.90;;;;;;5039296;28;20124;-57
2022/05/19 03:20:13;;;;;;;6.68;1.73;;;11.20;99.90;;;;;;5034482;28;20099;-57
2022/05/19 03:22:39;;;;;;;5.45;1.70;;;11.20;99.90;;;;;;5036321;28;20443;-52
2022/05/19 03:25:06;;;;;;;3.80;2.10;;;11.20;99.90;;;;;;5036592;28;20037;-53
2022/05/19 03:27:33;;;;;;;3.53;1.70;;;11.20;99.90;;;;;;5034184;28;20037;-51
2022/05/19 03:29:58;;;;;;;3.30;1.85;;;11.10;99.90;;;;;;5040308;28;20108;-49
2022/05/19 03:32:24;;;;;;;2.72;1.58;;;11.00;99.90;;;;;;5054688;28;20123;-54
2022/05/19 03:34:50;;;;;;;3.10;1.63;;;11.00;99.90;;;;;;5053682;28;20044;-55
2022/05/19 03:37:16;;;;;;;16.65;2.65;;;11.00;99.90;;;;;;5054509;28;20476;-56
2022/05/19 03:39:41;;;;;;;3.28;1.70;;;11.00;99.90;;;;;;5066245;28;20090;-53
2022/05/19 03:42:08;;;;;;;5.10;1.65;;;11.00;99.90;;;;;;5053937;28;20056;-57
2022/05/19 03:44:35;;;;;;;6.03;2.67;;;11.00;99.90;;;;;;5036793;28;20041;-58
2022/05/19 03:47:02;;;;;;;2.35;1.70;;;11.00;99.90;;;;;;5052335;28;20094;-50
2022/05/19 03:49:28;;;;;;;4.68;1.60;;;10.90;99.90;;;;;;5053571;28;20456;-56
2022/05/19 03:51:54;;;;;;;3.22;1.63;;;10.90;99.90;;;;;;5055471;28;20075;-55
2022/05/19 03:54:20;;;;;;;3.58;2.20;;;10.90;99.90;;;;;;5052414;28;20086;-54
2022/05/19 03:56:46;;;;;;;4.50;1.40;;;10.90;99.90;;;;;;5054862;28;20049;-57
2022/05/19 03:59:11;;;;;;;3.03;1.70;;;10.90;99.90;;;;;;5069474;28;20068;-54
2022/05/19 04:01:37;;;;;;;8.65;2.17;;;11.10;99.90;;;;;;5051068;28;20025;-57
2022/05/19 04:04:03;;;;;;;6.22;1.67;;;11.10;99.90;;;;;;5044849;28;20154;-54
2022/05/19 04:06:29;;;;;;;5.93;2.28;;;11.10;99.90;;;;;;5029582;28;20069;-54
2022/05/19 04:08:55;;;;;;;4.68;1.73;;;11.10;99.90;;;;;;5033373;28;20029;-56
2022/05/19 04:11:21;;;;;;;5.35;1.92;;;11.20;99.90;;;;;;5032290;28;20504;-53
2022/05/19 04:13:46;;;;;;;3.00;1.60;;;11.20;99.90;;;;;;5036897;28;20041;-55
2022/05/19 04:16:13;;;;;;;5.90;1.98;;;11.30;99.90;;;;;;5038173;28;20033;-55
2022/05/19 04:18:39;;;;;;;3.95;2.03;;;11.30;99.90;;;;;;5031650;28;20044;-55
2022/05/19 04:21:05;;;;;;;6.07;2.30;;;11.20;99.90;;;;;;5032955;28;20385;-60
2022/05/19 04:23:31;;;;;;;5.90;2.63;;;11.30;99.90;;;;;;5037656;28;20041;-54
2022/05/19 04:25:57;;;;;;;4.50;2.13;;;11.30;99.90;;;;;;5035580;28;20367;-55
2022/05/19 04:28:24;;;;;;;4.68;1.92;;;11.40;99.90;;;;;;5000297;28;20050;-59
2022/05/19 04:30:49;;;;;;;6.88;2.70;;;11.40;99.90;;;;;;5037994;28;20036;-50
2022/05/19 04:33:15;;;;;;;8.48;2.67;;;11.50;99.90;;;;;;5032792;28;20025;-52
2022/05/19 04:35:41;;;;;;;3.75;2.40;;;11.40;99.90;;;;;;5027426;28;20029;-51
2022/05/19 04:38:09;;;;;;;5.20;2.20;;;11.40;99.90;;;;;;5038362;28;20036;-53
2022/05/19 04:40:48;;;;;;;4.43;2.10;;;11.20;99.90;;;;;;5033302;28;20052;-54
2022/05/19 04:43:21;;;;;;;8.90;2.72;;;11.30;99.90;;;;;;5036316;28;20457;-52
2022/05/19 04:45:51;;;;;;;7.07;2.53;;;11.30;99.90;;;;;;5033366;28;20380;-52
2022/05/19 04:48:18;;;;;;;5.03;2.47;;;11.50;99.90;;;;;;5037184;28;20039;-56
2022/05/19 04:50:44;;;;;;;8.13;3.10;;;11.40;99.90;;;;;;5032879;28;20105;-54
2022/05/19 04:53:11;;;;;;;7.40;3.30;;;11.40;99.90;;;;;;5034055;28;20038;-53
2022/05/19 04:55:38;;;;;;;5.38;3.05;;;11.50;99.90;;;;;;5052133;28;20125;-53
2022/05/19 04:58:07;;;;;;;8.82;2.95;;;11.60;99.90;;;;;;5032779;28;20095;-56
2022/05/19 05:00:34;;;;;;;7.20;2.67;;;11.60;99.90;;;;;;5035829;28;20053;-59
2022/05/19 05:03:00;;;;;;;11.35;2.63;;;11.70;99.90;;;;;;5053120;28;20049;-53
2022/05/19 05:05:29;;;;;;;5.55;2.78;;;11.80;99.90;;;;;;5038997;28;20399;-51
2022/05/19 05:07:57;;;;;;;5.13;2.67;;;11.70;99.90;;;;;;5028539;28;20045;-54
2022/05/19 05:10:22;;;;;;;9.07;2.75;;;11.50;99.90;;;;;;5044759;28;20021;-57
2022/05/19 05:12:48;;;;;;;8.10;3.22;;;11.80;99.90;;;;;;5049611;28;20385;-57
2022/05/19 05:15:14;;;;;;;6.65;3.35;;;12.00;99.90;;;;;;5038136;28;20098;-55
2022/05/19 05:17:40;;;;;;;4.60;2.58;;;12.10;99.90;;;;;;5039766;28;20108;-54
2022/05/19 05:20:08;;;;;;;4.32;2.60;;;12.00;99.90;;;;;;5038321;28;20588;-54
2022/05/19 05:22:37;;;;;;;6.57;2.42;;;12.10;99.90;;;;;;5044607;28;20103;-59
2022/05/19 05:25:05;;;;;;;6.13;2.50;;;12.10;99.90;;;;;;5042532;28;20053;-54
2022/05/19 05:27:31;;;;;;;5.72;3.10;;;12.00;99.90;;;;;;5037824;28;20040;-57
2022/05/19 05:29:57;;;;;;;8.73;2.83;;;12.00;99.90;;;;;;5022583;28;20041;-58
2022/05/19 05:32:22;;;;;;;6.18;2.83;;;12.00;99.90;;;;;;5034913;28;20461;-52
2022/05/19 05:34:48;;;;;;;7.97;3.08;;;12.40;99.90;;;;;;5020238;28;20033;-60
2022/05/19 05:37:14;;;;;;;6.32;2.70;;;12.60;99.90;;;;;;5038847;28;20049;-55
2022/05/19 05:39:40;;;;;;;6.57;2.83;;;12.80;99.90;;;;;;5043108;28;20047;-54
2022/05/19 05:42:07;;;;;;;7.15;2.80;;;13.00;99.90;;;;;;5037247;28;20476;-60
2022/05/19 05:44:32;;;;;;;7.47;3.13;;;13.00;99.90;;;;;;5035243;28;20131;-58
2022/05/19 05:47:01;;;;;;;12.27;3.35;;;12.90;99.90;;;;;;5037604;28;20116;-53
2022/05/19 05:49:27;;;;;;;6.50;2.90;;;13.10;99.90;;;;;;5041831;28;20508;-59
2022/05/19 05:51:53;;;;;;;9.05;2.90;;;13.30;99.90;;;;;;5035953;28;20204;-55
2022/05/19 05:54:18;;;;;;;6.30;2.38;;;13.50;99.90;;;;;;5037171;28;20037;-54
2022/05/19 05:56:44;;;;;;;8.13;2.67;;;13.50;99.90;;;;;;5035692;28;20053;-53
2022/05/19 05:59:10;;;;;;;13.40;3.28;;;13.80;99.90;;;;;;4998127;28;20041;-52
2022/05/19 06:01:36;;;;;;;6.22;2.50;;;13.80;99.90;;;;;;5031704;28;20041;-48
2022/05/19 06:04:02;;;;;;;8.57;3.63;;;14.00;99.90;;;;;;4997423;28;20098;-53
2022/05/19 06:06:28;;;;;;;3.53;2.25;;;14.30;99.90;;;;;;4994780;28;20050;-51
2022/05/19 06:08:54;;;;;;;7.05;2.58;;;14.40;99.90;;;;;;4993276;28;20042;-50
2022/05/19 06:11:20;;;;;;;4.55;2.10;;;14.60;99.90;;;;;;4997013;28;20033;-49
2022/05/19 06:13:47;;;;;;;8.32;2.45;;;14.70;99.90;;;;;;4993399;28;20050;-51
2022/05/19 06:16:12;;;;;;;5.57;2.13;;;14.80;99.90;;;;;;4993972;28;20496;-48
2022/05/19 06:18:38;;;;;;;11.07;2.25;;;15.10;99.90;;;;;;4993297;28;20046;-50
2022/05/19 06:21:05;;;;;;;14.45;3.40;;;15.30;99.90;;;;;;5009158;28;20060;-50
2022/05/19 06:23:32;;;;;;;7.07;1.58;;;15.40;99.90;;;;;;4992581;28;20526;-50
2022/05/19 06:26:00;;;;;;;8.75;2.00;;;15.70;99.90;;;;;;4992929;28;20047;-50
2022/05/19 06:28:26;;;;;;;7.07;2.13;;;15.70;99.90;;;;;;4992857;28;20034;-50
2022/05/19 06:30:52;;;;;;;8.70;1.80;;;16.00;99.90;;;;;;4993363;28;20091;-50
2022/05/19 06:33:20;;;;;;;8.77;1.60;;;16.20;99.90;;;;;;4993031;28;20049;-50
2022/05/19 06:35:46;;;;;;;5.10;2.00;;;16.50;99.90;;;;;;5015751;28;20270;-50
2022/05/19 06:38:12;;;;;;;4.07;1.33;;;16.60;99.90;;;;;;5051987;28;20114;-50
2022/05/19 06:40:38;;;;;;;12.02;1.55;;;16.70;99.90;;;;;;5052893;28;20060;-50
2022/05/19 06:43:09;;;;;;;6.38;1.52;;;16.90;99.90;;;;;;5035444;28;20514;-50
2022/05/19 06:45:36;;;;;;;5.85;2.25;;;16.80;99.90;;;;;;5051931;28;20048;-50
2022/05/19 06:48:01;;;;;;;5.18;1.35;;;16.90;99.50;;;;;;5052037;28;20044;-50
2022/05/19 06:50:27;;;;;;;6.00;1.52;;;17.10;99.80;;;;;;5045826;28;20049;-50
2022/05/19 06:52:59;;;;;;;9.52;1.63;;;17.20;99.90;;;;;;5037929;28;20052;-50
2022/05/19 06:55:26;;;;;;;6.00;1.90;;;17.40;98.50;;;;;;5015592;28;20112;-50
2022/05/19 06:57:52;;;;;;;6.78;1.92;;;17.50;97.70;;;;;;5035709;28;20489;-50
2022/05/19 07:00:21;;;;;;;6.35;1.10;;;17.60;98.20;;;;;;5038534;28;20021;-51
2022/05/19 07:02:51;;;;;;;4.10;1.40;;;17.90;97.10;;;;;;5034293;28;20036;-50
2022/05/19 07:05:19;;;;;;;2.42;1.23;;;17.90;96.00;;;;;;5035776;28;20041;-50
2022/05/19 07:07:48;;;;;;;5.00;2.22;;;18.00;97.20;;;;;;5033282;28;20065;-50
2022/05/19 07:10:15;;;;;;;8.23;1.90;;;;;;;;;;5037036;28;20038;-50
2022/05/19 07:12:43;;;;;;;6.40;1.27;;;18.20;99.90;;;;;;5034764;28;20034;-50
2022/05/19 07:15:11;;;;;;;3.80;1.40;;;18.40;95.70;;;;;;5033032;28;20036;-49
2022/05/19 07:17:37;;;;;;;6.60;1.25;;;18.60;95.20;;;;;;5032613;28;19972;-50
2022/05/19 07:22:48;;;;;;;4.65;1.40;;;18.80;94.40;;;;;;5033264;28;20044;-50
2022/05/19 07:25:14;;;;;;;11.02;1.35;;;18.90;94.60;;;;;;5035970;28;20121;-50
2022/05/19 07:27:39;;;;;;;6.60;1.42;;;18.90;93.80;;;;;;5036271;28;20381;-50
2022/05/19 07:30:06;;;;;;;13.32;3.28;;;19.10;92.80;;;;;;5036218;28;20033;-50
2022/05/19 07:32:32;;;;;;;5.32;1.38;;;18.90;93.40;;;;;;4994249;28;20037;-51
2022/05/19 07:34:58;;;;;;;3.47;1.30;;;19.20;99.90;;;;;;5035508;28;20041;-50
2022/05/19 07:37:25;;;;;;;5.60;1.50;;;19.40;98.00;;;;;;5057470;28;20048;-50
2022/05/19 07:39:52;;;;;;;3.50;1.67;;;19.30;91.20;;;;;;5035633;28;20378;-50
2022/05/19 07:42:18;;;;;;;11.00;1.45;;;19.50;92.00;;;;;;5033740;28;20025;-50
2022/05/19 07:44:44;;;;;;;6.82;1.35;;;19.70;91.60;;;;;;5033825;28;20029;-50
2022/05/19 07:47:10;;;;;;;3.35;1.00;;;19.90;91.40;;;;;;5033587;28;20029;-50
2022/05/19 07:49:36;;;;;;;15.77;1.95;;;19.90;88.60;;;;;;5033133;28;20163;-51
2022/05/19 07:52:02;;;;;;;4.45;1.35;;;20.10;89.80;;;;;;5034162;28;20112;-50
2022/05/19 07:54:31;;;;;;;4.15;1.45;;;20.00;89.10;;;;;;5047445;28;20044;-50
2022/05/19 07:56:57;;;;;;;7.78;1.35;;;;;;;;;;5030757;28;20455;-50
2022/05/19 07:59:23;;;;;;;5.60;0.93;;;20.20;99.90;;;;;;5050408;28;20055;-50
2022/05/19 08:01:50;;;;;;;3.40;1.05;;;20.20;99.90;;;;;;5031198;28;20045;-50
2022/05/19 08:04:17;;;;;;;6.20;1.33;;;20.30;87.00;;;;;;5030511;28;20080;-50
2022/05/19 08:06:43;;;;;;;3.15;1.00;;;20.50;86.70;;;;;;5030724;28;20116;-51
2022/05/19 08:11:55;;;;;;;3.53;1.00;;;;;;;;;;5031117;28;20129;-50
2022/05/19 08:17:10;;;;;;;5.90;1.10;;;21.20;95.10;;;;;;5035849;28;20202;-52
2022/05/19 08:19:37;;;;;;;2.33;0.80;;;21.50;83.40;;;;;;5034676;28;20095;-51
2022/05/19 08:22:04;;;;;;;2.72;1.00;;;21.60;82.80;;;;;;5030842;28;20037;-51
2022/05/19 08:24:30;;;;;;;6.68;0.95;;;21.50;81.90;;;;;;5033756;28;20048;-51
2022/05/19 08:26:56;;;;;;;3.10;0.85;;;21.70;81.20;;;;;;5037556;28;20528;-50
2022/05/19 08:29:23;;;;;;;5.68;0.90;;;22.00;83.10;;;;;;5057256;28;20032;-51
2022/05/19 08:31:50;;;;;;;3.65;1.15;;;22.30;83.40;;;;;;5051525;28;20845;-50
2022/05/19 08:34:15;;;;;;;3.30;1.08;;;22.50;79.40;;;;;;5049984;28;20037;-50
2022/05/19 08:36:43;;;;;;;11.10;1.95;;;22.30;79.60;;;;;;5035735;28;20049;-51
2022/05/19 08:39:10;;;;;;;3.40;1.15;;;;;;;;;;5050761;28;20043;-50
2022/05/19 08:42:07;;;;;;;4.95;1.25;;;22.90;94.60;;;;;;5053323;28;20036;-50
2022/05/19 08:44:36;;;;;;;2.90;1.10;;;23.00;80.10;;;;;;5013049;28;20042;-51
2022/05/19 08:47:04;;;;;;;3.28;1.05;;;22.80;79.30;;;;;;5015968;28;20033;-50
2022/05/19 08:49:48;;;;;;;7.10;1.00;;;22.70;80.10;;;;;;4953351;28;20204;-51
2022/05/19 08:52:18;;;;;;;7.32;1.48;;;;;;;;;;5011099;28;20382;-50
2022/05/19 08:54:47;;;;;;;4.15;0.90;;;23.00;79.50;;;;;;5013267;28;20042;-50
2022/05/19 08:57:50;;;;;;;5.13;1.00;;;23.00;79.10;;;;;;5008296;28;20132;-51
2022/05/19 09:00:17;;;;;;;;;;;23.40;78.10;;;;;;5016156;28;20045;-50
2022/05/19 09:02:49;;;;;;;2.28;1.13;;;23.60;77.30;;;;;;5013111;28;19910;-50
2022/05/19 09:05:39;;;;;;;2.70;1.05;;;23.60;77.80;;;;;;5010654;28;20088;-47
2022/05/19 09:08:29;;;;;;;3.88;1.20;;;23.10;78.00;;;;;;4994431;28;20084;-52
2022/05/19 09:10:58;;;;;;;6.03;1.83;;;23.40;76.10;;;;;;5007476;28;20069;-48
2022/05/19 09:13:31;;;;;;;10.10;1.85;;;;;;;;;;5010695;28;20108;-46
2022/05/19 09:15:59;;;;;;;3.67;1.30;;;;;;;;;;5010598;28;20390;-47
2022/05/19 09:18:46;;;;;;;3.92;1.48;;;;;;;;;;5008992;28;20057;-49
2022/05/19 09:21:12;;;;;;;6.43;1.30;;;;;;;;;;5028135;28;20038;-48
2022/05/19 09:23:40;;;;;;;6.95;1.58;;;23.90;99.30;;;;;;5034556;28;20060;-46
2022/05/19 09:26:12;;;;;;;6.38;1.63;;;;;;;;;;5023001;28;20053;-52
2022/05/19 09:28:38;;;;;;;4.22;1.33;;;24.50;74.00;;;;;;5037334;28;20042;-50
2022/05/19 09:31:07;;;;;;;3.15;1.20;;;24.70;77.80;;;;;;5033068;28;20025;-50
2022/05/19 09:33:37;;;;;;;3.47;1.17;;;25.00;75.00;;;;;;5034530;28;20068;-45
2022/05/19 09:36:11;;;;;;;4.85;1.00;;;24.90;75.50;;;;;;5035617;28;20041;-49
2022/05/19 09:38:55;;;;;;;2.85;1.23;;;24.80;75.20;;;;;;5034478;28;20470;-49
2022/05/19 09:41:26;;;;;;;3.95;1.27;;;;;;;;;;5034738;28;20466;-48
2022/05/19 09:43:55;;;;;;;7.47;1.73;;;25.00;95.70;;;;;;5042565;28;20033;-47
2022/05/19 09:46:21;;;;;;;80.30;21.98;;;25.00;94.30;;;;;;5035843;28;20485;-50
2022/05/19 09:49:01;;;;;;;31.55;4.20;;;25.00;94.50;;;;;;5036436;28;20052;-46
2022/05/19 09:51:31;;;;;;;2.47;1.10;;;;;;;;;;5034944;28;20080;-48
2022/05/19 09:53:59;;;;;;;7.05;1.80;;;;;;;;;;5028484;28;20045;-47
2022/05/19 09:56:34;;;;;;;7.45;1.27;;;;;;;;;;5042028;28;20041;-48
2022/05/19 09:59:05;;;;;;;3.95;1.38;;;;;;;;;;5036062;28;20044;-47
2022/05/19 10:01:37;;;;;;;8.07;3.63;;;;;;;;;;5039615;28;20036;-47
2022/05/19 10:04:07;;;;;;;6.43;1.45;;;;;;;;;;5040435;28;20029;-47
2022/05/19 10:06:39;;;;;;;2.28;0.82;;;;;;;;;;5036954;28;20036;-47
2022/05/19 10:09:11;;;;;;;9.82;1.35;;;;;;;;;;5034518;28;20663;-48
2022/05/19 10:11:37;;;;;;;;;;;;;;;;;;5039053;28;20064;-48
2022/05/19 10:14:03;;;;;;;1.20;0.77;;;;;;;;;;5035820;28;19947;-48
2022/05/19 10:16:58;;;;;;;6.25;1.70;;;26.60;85.00;;;;;;5040327;28;20091;-48
2022/05/19 10:20:00;;;;;;;3.78;1.02;;;26.60;68.80;;;;;;5035667;28;20057;-48
2022/05/19 10:22:44;;;;;;;2.40;1.00;;;25.50;66.10;;;;;;5038026;28;20034;-48
2022/05/19 10:25:32;;;;;;;4.20;1.20;;;25.40;66.70;;;;;;5031161;28;20086;-48
2022/05/19 10:31:07;;;;;;;3.33;0.93;;;;;;;;;;5035798;28;20440;-48
2022/05/19 10:33:51;;;;;;;7.10;1.48;;;27.00;68.20;;;;;;5035453;28;20059;-48
2022/05/19 10:36:35;;;;;;;3.38;1.25;;;27.50;67.80;;;;;;5036398;28;20045;-48
2022/05/19 10:39:19;;;;;;;4.10;1.00;;;;;;;;;;5038525;28;20034;-48
2022/05/19 10:41:45;;;;;;;7.22;1.20;;;;;;;;;;5037835;28;20132;-48
2022/05/19 10:44:17;;;;;;;6.82;1.60;;;;;;;;;;5035258;28;20040;-47
2022/05/19 10:46:52;;;;;;;1.75;0.70;;;;;;;;;;5039145;28;20120;-47
2022/05/19 10:49:35;;;;;;;7.05;1.40;;;;;;;;;;5037419;28;20064;-48
2022/05/19 10:52:01;;;;;;;5.90;1.58;;;;;;;;;;5041602;28;20132;-47
2022/05/19 10:54:55;;;;;;;2.90;1.38;;;26.90;65.30;;;;;;5041561;28;20468;-48
2022/05/19 10:57:35;;;;;;;5.45;1.35;;;26.90;65.40;;;;;;5037252;28;20148;-48
2022/05/19 11:00:21;;;;;;;3.17;1.20;;;26.20;65.90;;;;;;5037277;28;20045;-47
2022/05/19 11:03:05;;;;;;;6.82;1.10;;;26.70;66.30;;;;;;5037341;28;20049;-48
2022/05/19 11:05:52;;;;;;;2.40;0.95;;;26.80;65.40;;;;;;5036222;28;20037;-47
2022/05/19 11:08:39;;;;;;;5.30;1.10;;;;;;;;;;5038256;28;20037;-49
2022/05/19 11:11:21;;;;;;;1.48;0.90;;;27.70;65.70;;;;;;5035545;28;20091;-48
2022/05/19 11:14:34;;;;;;;5.63;1.33;;;27.90;64.90;;;;;;5034126;28;20045;-48
2022/05/19 11:17:24;;;;;;;5.00;1.30;;;;;;;;;;5034017;28;20087;-48
2022/05/19 11:19:52;;;;;;;2.05;1.05;;;28.40;65.40;;;;;;4933493;29;20164;-46
2022/05/19 11:22:25;;;;;;;4.60;1.70;;;27.90;63.80;;;;;;4920081;29;20050;-48
2022/05/19 11:28:12;;;;;;;3.20;1.63;;;;;;;;;;4876518;29;20049;-48
2022/05/19 11:30:42;;;;;;;6.90;1.08;;;;;;;;;;4878550;29;20080;-48
2022/05/19 11:33:12;;;;;;;7.57;1.35;;;;;;;;;;4880031;29;20115;-48
2022/05/19 11:35:42;;;;;;;2.72;1.10;;;;;;;;;;4865436;29;20045;-47
2022/05/19 11:38:23;;;;;;;6.65;1.90;;;29.30;64.80;;;;;;4864267;29;20053;-47
2022/05/19 11:41:01;;;;;;;5.18;1.52;;;29.50;64.10;;;;;;4878428;29;20047;-47
2022/05/19 11:43:39;;;;;;;2.10;1.00;;;28.80;62.40;;;;;;4870271;29;20041;-46
2022/05/19 11:46:20;;;;;;;3.70;1.17;;;29.10;63.30;;;;;;4875692;29;20044;-47
2022/05/19 11:55:29;;;;;;;3.10;1.10;;;;;;;;;;4889054;29;20478;-45
2022/05/19 11:58:09;;;;;;;2.33;1.08;;;;;;;;;;4942122;29;20563;-54
2022/05/19 12:00:47;;;;;;;4.72;1.50;;;;;;;;;;4942634;29;20134;-49
2022/05/19 12:03:22;;;;;;;8.15;1.38;;;;;;;;;;4947224;28;20039;-51
2022/05/19 12:06:01;;;;;;;1.65;0.80;;;28.10;95.40;;;;;;5038025;28;20036;-48
2022/05/19 12:08:37;;;;;;;1.83;1.10;;;28.00;62.90;;;;;;5036897;28;20120;-48
2022/05/19 12:11:11;;;;;;;4.28;1.83;;;28.30;63.50;;;;;;5033712;28;20030;-50
2022/05/19 12:13:39;;;;;;;3.75;1.55;;;27.70;63.80;;;;;;5033035;28;20048;-50
2022/05/19 12:16:14;;;;;;;5.03;1.10;;;28.40;63.60;;;;;;5038011;28;20509;-48
2022/05/19 12:18:46;;;;;;;3.67;1.42;;;;;;;;;;5036357;28;20453;-46
2022/05/19 12:21:17;;;;;;;4.50;1.67;;;;;;;;;;5035610;28;20478;-48
2022/05/19 12:23:43;;;;;;;7.50;2.83;;;;;;;;;;5038044;28;20358;-46
2022/05/19 12:26:24;;;;;;;2.58;1.10;;;;;;;;;;5040252;28;20530;-47
2022/05/19 12:29:13;;;;;;;3.70;1.00;;;;;;;;;;5039657;28;20021;-47
2022/05/19 12:32:04;;;;;;;2.90;1.42;;;;;;;;;;5031202;28;20469;-46
2022/05/19 12:34:31;;;;;;;3.08;0.90;;;;;;;;;;5038256;28;20072;-47
2022/05/19 12:37:30;;;;;;;4.70;1.30;;;;;;;;;;5033856;28;20053;-47
2022/05/19 12:40:15;;;;;;;1.08;0.80;;;;;;;;;;5032356;28;20129;-48
2022/05/19 12:42:42;;;;;;;3.03;1.10;;;;;;;;;;5029205;28;20394;-47
2022/05/19 12:45:34;;;;;;;4.85;1.45;;;;;;;;;;5033019;28;20381;-49
2022/05/19 12:48:25;;;;;;;4.43;1.08;;;29.60;63.40;;;;;;5033490;28;20373;-47
2022/05/19 12:51:11;;;;;;;5.57;1.30;;;30.00;63.10;;;;;;5029895;28;20033;-48
2022/05/19 12:53:49;;;;;;;3.42;0.93;;;28.90;90.10;;;;;;5029994;28;20537;-48
2022/05/19 12:56:46;;;;;;;1.73;1.20;;;28.20;81.70;;;;;;5027442;28;20045;-47
2022/05/19 12:59:42;;;;;;;1.95;1.30;;;28.40;86.40;;;;;;5028981;28;20092;-48
2022/05/19 13:02:24;;;;;;;3.63;1.20;;;27.10;91.80;;;;;;4993396;28;20080;-48
2022/05/19 13:04:57;;;;;;;2.53;0.90;;;27.20;88.30;;;;;;5033079;28;20436;-47
2022/05/19 13:07:23;;;;;;;1.77;1.17;;;27.40;87.20;;;;;;5032268;28;20034;-46
2022/05/19 13:09:54;;;;;;;5.13;1.30;;;;;;;;;;5011506;28;20042;-47
2022/05/19 13:12:22;;;;;;;5.22;1.45;;;;;;;;;;5033033;28;20120;-47
2022/05/19 13:14:57;;;;;;;1.95;1.25;;;;;;;;;;5031809;28;20626;-48
2022/05/19 13:17:43;;;;;;;2.85;1.10;;;;;;;;;;5036817;28;20037;-48
2022/05/19 13:20:19;;;;;;;1.67;1.27;;;28.10;61.10;;;;;;5025056;28;20041;-47
2022/05/19 13:23:08;;;;;;;3.35;1.20;;;28.10;61.40;;;;;;5038046;28;20029;-47
2022/05/19 13:25:36;;;;;;;2.13;1.10;;;;;;;;;;5034782;28;20120;-48
2022/05/19 13:30:52;;;;;;;4.13;1.15;;;;;;;;;;5040234;28;20047;-48
2022/05/19 13:33:30;;;;;;;4.93;1.38;;;30.00;60.90;;;;;;5035851;28;20461;-47
2022/05/19 13:36:02;;;;;;;4.22;1.63;;;30.50;61.40;;;;;;5041836;28;20065;-47
2022/05/19 13:38:28;;;;;;;;;;;;;;;;;;5050760;28;20061;-48
2022/05/19 13:40:55;;;;;;;3.25;1.55;;;;;;;;;;5059657;28;19912;-48
2022/05/19 13:43:21;;;;;;;3.70;1.20;;;;;;;;;;5038590;28;20034;-47
2022/05/19 13:45:50;;;;;;;6.13;1.27;;;;;;;;;;5040121;28;20055;-47
2022/05/19 13:48:16;;;;;;;1.80;0.98;;;;;;;;;;5038411;28;20036;-47
2022/05/19 13:50:43;;;;;;;1.90;1.20;;;;;;;;;;5037171;28;20441;-47
2022/05/19 13:53:10;;;;;;;4.10;1.40;;;;;;;;;;5035495;28;20143;-47